sensor_id;sensor_type;location;lat;lon;timestamp;P1;P2;P0
72793;PMS5003;61018;26.334;50.194;2022-07-01T00:02:25;77;42;
72793;PMS5003;61018;26.334;50.194;2022-07-01T00:04:53;83;49;
72793;PMS5003;61018;26.334;50.194;2022-07-01T00:07:16;94;41;
72793;PMS5003;61018;26.334;50.194;2022-07-01T00:09:41;89;51;
72793;PMS5003;61018;26.334;50.194;2022-07-01T00:12:07;90;54;
72793;PMS5003;61018;26.334;50.194;2022-07-01T00:14:33;78;40;
72793;PMS5003;61018;26.334;50.194;2022-07-01T00:16:57;85;51;
72793;PMS5003;61018;26.334;50.194;2022-07-01T00:19:25;82;46;
72793;PMS5003;61018;26.334;50.194;2022-07-01T00:21:48;73;45;
72793;PMS5003;61018;26.334;50.194;2022-07-01T00:24:13;73;41;
72793;PMS5003;61018;26.334;50.194;2022-07-01T00:26:39;91;46;
72793;PMS5003;61018;26.334;50.194;2022-07-01T00:29:04;62;48;
72793;PMS5003;61018;26.334;50.194;2022-07-01T00:31:29;61;43;
72793;PMS5003;61018;26.334;50.194;2022-07-01T00:33:55;85;47;
72793;PMS5003;61018;26.334;50.194;2022-07-01T00:36:20;69;37;
72793;PMS5003;61018;26.334;50.194;2022-07-01T00:41:12;75;44;
72793;PMS5003;61018;26.334;50.194;2022-07-01T00:43:37;96;54;
72793;PMS5003;61018;26.334;50.194;2022-07-01T00:46:04;69;40;
72793;PMS5003;61018;26.334;50.194;2022-07-01T00:50:55;59;39;
72793;PMS5003;61018;26.334;50.194;2022-07-01T00:53:19;72;40;
72793;PMS5003;61018;26.334;50.194;2022-07-01T00:55:45;72;37;
72793;PMS5003;61018;26.334;50.194;2022-07-01T00:58:10;67;44;
72793;PMS5003;61018;26.334;50.194;2022-07-01T01:00:36;70;37;
72793;PMS5003;61018;26.334;50.194;2022-07-01T01:03:02;73;39;
72793;PMS5003;61018;26.334;50.194;2022-07-01T01:05:28;73;39;
72793;PMS5003;61018;26.334;50.194;2022-07-01T01:07:53;58;31;
72793;PMS5003;61018;26.334;50.194;2022-07-01T01:10:18;50;30;
72793;PMS5003;61018;26.334;50.194;2022-07-01T01:12:44;70;39;
72793;PMS5003;61018;26.334;50.194;2022-07-01T01:17:35;54;31;
72793;PMS5003;61018;26.334;50.194;2022-07-01T01:20:02;54;33;
72793;PMS5003;61018;26.334;50.194;2022-07-01T01:22:27;54;31;
72793;PMS5003;61018;26.334;50.194;2022-07-01T01:24:52;43;27;
72793;PMS5003;61018;26.334;50.194;2022-07-01T01:27:18;66;32;
72793;PMS5003;61018;26.334;50.194;2022-07-01T01:29:43;59;33;
72793;PMS5003;61018;26.334;50.194;2022-07-01T01:32:08;56;36;
72793;PMS5003;61018;26.334;50.194;2022-07-01T01:34:33;49;27;
72793;PMS5003;61018;26.334;50.194;2022-07-01T01:36:59;56;28;
72793;PMS5003;61018;26.334;50.194;2022-07-01T01:39:24;51;32;
72793;PMS5003;61018;26.334;50.194;2022-07-01T01:41:50;44;29;
72793;PMS5003;61018;26.334;50.194;2022-07-01T01:44:15;40;30;
72793;PMS5003;61018;26.334;50.194;2022-07-01T01:46:40;67;34;
72793;PMS5003;61018;26.334;50.194;2022-07-01T01:49:06;60;31;
72793;PMS5003;61018;26.334;50.194;2022-07-01T01:51:32;51;29;
72793;PMS5003;61018;26.334;50.194;2022-07-01T01:53:57;61;34;
72793;PMS5003;61018;26.334;50.194;2022-07-01T01:56:22;54;31;
72793;PMS5003;61018;26.334;50.194;2022-07-01T01:58:48;45;32;
72793;PMS5003;61018;26.334;50.194;2022-07-01T02:01:13;39;33;
72793;PMS5003;61018;26.334;50.194;2022-07-01T02:03:39;55;34;
72793;PMS5003;61018;26.334;50.194;2022-07-01T02:06:04;57;32;
72793;PMS5003;61018;26.334;50.194;2022-07-01T02:08:30;52;34;
72793;PMS5003;61018;26.334;50.194;2022-07-01T02:10:54;55;35;
72793;PMS5003;61018;26.334;50.194;2022-07-01T02:13:19;48;31;
72793;PMS5003;61018;26.334;50.194;2022-07-01T02:18:11;58;35;
72793;PMS5003;61018;26.334;50.194;2022-07-01T02:20:36;53;31;
72793;PMS5003;61018;26.334;50.194;2022-07-01T02:23:01;52;31;
72793;PMS5003;61018;26.334;50.194;2022-07-01T02:25:27;41;29;
72793;PMS5003;61018;26.334;50.194;2022-07-01T02:27:51;49;28;
72793;PMS5003;61018;26.334;50.194;2022-07-01T02:30:17;37;29;
72793;PMS5003;61018;26.334;50.194;2022-07-01T02:32:43;54;29;
72793;PMS5003;61018;26.334;50.194;2022-07-01T02:35:09;39;31;
72793;PMS5003;61018;26.334;50.194;2022-07-01T02:40:00;45;32;
72793;PMS5003;61018;26.334;50.194;2022-07-01T02:42:30;55;28;
72793;PMS5003;61018;26.334;50.194;2022-07-01T02:47:16;52;35;
72793;PMS5003;61018;26.334;50.194;2022-07-01T02:49:42;52;29;
72793;PMS5003;61018;26.334;50.194;2022-07-01T02:52:07;39;30;
72793;PMS5003;61018;26.334;50.194;2022-07-01T02:54:32;42;24;
72793;PMS5003;61018;26.334;50.194;2022-07-01T02:56:57;43;28;
72793;PMS5003;61018;26.334;50.194;2022-07-01T02:59:22;36;27;
72793;PMS5003;61018;26.334;50.194;2022-07-01T03:01:48;49;30;
72793;PMS5003;61018;26.334;50.194;2022-07-01T03:04:13;44;26;
72793;PMS5003;61018;26.334;50.194;2022-07-01T03:06:39;53;29;
72793;PMS5003;61018;26.334;50.194;2022-07-01T03:09:05;47;30;
72793;PMS5003;61018;26.334;50.194;2022-07-01T03:13:55;45;27;
72793;PMS5003;61018;26.334;50.194;2022-07-01T03:16:21;35;28;
72793;PMS5003;61018;26.334;50.194;2022-07-01T03:18:46;40;30;
72793;PMS5003;61018;26.334;50.194;2022-07-01T03:21:11;57;28;
72793;PMS5003;61018;26.334;50.194;2022-07-01T03:23:36;44;29;
72793;PMS5003;61018;26.334;50.194;2022-07-01T03:26:02;35;26;
72793;PMS5003;61018;26.334;50.194;2022-07-01T03:28:27;41;31;
72793;PMS5003;61018;26.334;50.194;2022-07-01T03:30:52;48;29;
72793;PMS5003;61018;26.334;50.194;2022-07-01T03:33:17;38;34;
72793;PMS5003;61018;26.334;50.194;2022-07-01T03:35:43;37;27;
72793;PMS5003;61018;26.334;50.194;2022-07-01T03:38:08;55;30;
72793;PMS5003;61018;26.334;50.194;2022-07-01T03:40:33;47;25;
72793;PMS5003;61018;26.334;50.194;2022-07-01T03:42:58;40;29;
72793;PMS5003;61018;26.334;50.194;2022-07-01T03:45:23;47;27;
72793;PMS5003;61018;26.334;50.194;2022-07-01T03:47:49;41;27;
72793;PMS5003;61018;26.334;50.194;2022-07-01T03:50:14;40;29;
72793;PMS5003;61018;26.334;50.194;2022-07-01T03:52:40;37;27;
72793;PMS5003;61018;26.334;50.194;2022-07-01T03:55:05;47;31;
72793;PMS5003;61018;26.334;50.194;2022-07-01T03:57:31;37;27;
72793;PMS5003;61018;26.334;50.194;2022-07-01T03:59:55;43;27;
72793;PMS5003;61018;26.334;50.194;2022-07-01T04:02:20;48;26;
72793;PMS5003;61018;26.334;50.194;2022-07-01T04:04:47;33;28;
72793;PMS5003;61018;26.334;50.194;2022-07-01T04:07:12;40;28;
72793;PMS5003;61018;26.334;50.194;2022-07-01T04:09:37;49;28;
72793;PMS5003;61018;26.334;50.194;2022-07-01T04:12:03;44;26;
72793;PMS5003;61018;26.334;50.194;2022-07-01T04:14:28;37;25;
72793;PMS5003;61018;26.334;50.194;2022-07-01T04:16:53;46;25;
72793;PMS5003;61018;26.334;50.194;2022-07-01T04:19:18;33;27;
72793;PMS5003;61018;26.334;50.194;2022-07-01T04:21:44;36;23;
72793;PMS5003;61018;26.334;50.194;2022-07-01T04:24:09;30;25;
72793;PMS5003;61018;26.334;50.194;2022-07-01T04:26:34;48;27;
72793;PMS5003;61018;26.334;50.194;2022-07-01T04:29:00;54;27;
72793;PMS5003;61018;26.334;50.194;2022-07-01T04:31:25;46;26;
72793;PMS5003;61018;26.334;50.194;2022-07-01T04:33:51;31;23;
72793;PMS5003;61018;26.334;50.194;2022-07-01T04:36:17;42;26;
72793;PMS5003;61018;26.334;50.194;2022-07-01T04:38:41;28;25;
72793;PMS5003;61018;26.334;50.194;2022-07-01T04:43:33;40;23;
72793;PMS5003;61018;26.334;50.194;2022-07-01T04:48:23;34;26;
72793;PMS5003;61018;26.334;50.194;2022-07-01T04:50:49;45;23;
72793;PMS5003;61018;26.334;50.194;2022-07-01T04:53:14;49;26;
72793;PMS5003;61018;26.334;50.194;2022-07-01T04:55:39;48;32;
72793;PMS5003;61018;26.334;50.194;2022-07-01T04:58:05;32;26;
72793;PMS5003;61018;26.334;50.194;2022-07-01T05:00:30;42;25;
72793;PMS5003;61018;26.334;50.194;2022-07-01T05:02:56;36;27;
72793;PMS5003;61018;26.334;50.194;2022-07-01T05:05:21;32;27;
72793;PMS5003;61018;26.334;50.194;2022-07-01T05:07:46;52;27;
72793;PMS5003;61018;26.334;50.194;2022-07-01T05:10:11;38;26;
72793;PMS5003;61018;26.334;50.194;2022-07-01T05:12:36;41;26;
72793;PMS5003;61018;26.334;50.194;2022-07-01T05:15:02;47;24;
72793;PMS5003;61018;26.334;50.194;2022-07-01T05:17:27;32;25;
72793;PMS5003;61018;26.334;50.194;2022-07-01T05:19:53;50;29;
72793;PMS5003;61018;26.334;50.194;2022-07-01T05:22:18;31;23;
72793;PMS5003;61018;26.334;50.194;2022-07-01T05:24:43;37;23;
72793;PMS5003;61018;26.334;50.194;2022-07-01T05:27:09;32;26;
72793;PMS5003;61018;26.334;50.194;2022-07-01T05:29:34;56;29;
72793;PMS5003;61018;26.334;50.194;2022-07-01T05:31:59;37;27;
72793;PMS5003;61018;26.334;50.194;2022-07-01T05:34:25;29;24;
72793;PMS5003;61018;26.334;50.194;2022-07-01T05:36:50;44;24;
72793;PMS5003;61018;26.334;50.194;2022-07-01T05:39:16;33;24;
72793;PMS5003;61018;26.334;50.194;2022-07-01T05:41:41;34;24;
72793;PMS5003;61018;26.334;50.194;2022-07-01T05:44:06;27;23;
72793;PMS5003;61018;26.334;50.194;2022-07-01T05:46:32;44;22;
72793;PMS5003;61018;26.334;50.194;2022-07-01T05:48:57;39;22;
72793;PMS5003;61018;26.334;50.194;2022-07-01T05:51:22;30;24;
72793;PMS5003;61018;26.334;50.194;2022-07-01T05:53:48;35;22;
72793;PMS5003;61018;26.334;50.194;2022-07-01T05:56:13;28;22;
72793;PMS5003;61018;26.334;50.194;2022-07-01T05:58:39;27;25;
72793;PMS5003;61018;26.334;50.194;2022-07-01T06:01:04;28;22;
72793;PMS5003;61018;26.334;50.194;2022-07-01T06:03:30;41;24;
72793;PMS5003;61018;26.334;50.194;2022-07-01T06:05:56;35;25;
72793;PMS5003;61018;26.334;50.194;2022-07-01T06:08:21;32;20;
72793;PMS5003;61018;26.334;50.194;2022-07-01T06:10:47;44;21;
72793;PMS5003;61018;26.334;50.194;2022-07-01T06:20:30;27;24;
72793;PMS5003;61018;26.334;50.194;2022-07-01T06:22:54;32;24;
72793;PMS5003;61018;26.334;50.194;2022-07-01T06:25:20;33;26;
72793;PMS5003;61018;26.334;50.194;2022-07-01T06:27:45;28;24;
72793;PMS5003;61018;26.334;50.194;2022-07-01T06:30:11;35;23;
72793;PMS5003;61018;26.334;50.194;2022-07-01T06:32:36;39;26;
72793;PMS5003;61018;26.334;50.194;2022-07-01T06:35:02;30;22;
72793;PMS5003;61018;26.334;50.194;2022-07-01T06:37:27;33;26;
72793;PMS5003;61018;26.334;50.194;2022-07-01T06:39:52;31;24;
72793;PMS5003;61018;26.334;50.194;2022-07-01T06:42:18;29;24;
72793;PMS5003;61018;26.334;50.194;2022-07-01T06:44:43;36;23;
72793;PMS5003;61018;26.334;50.194;2022-07-01T06:47:08;29;23;
72793;PMS5003;61018;26.334;50.194;2022-07-01T06:49:34;31;22;
72793;PMS5003;61018;26.334;50.194;2022-07-01T06:51:59;38;24;
72793;PMS5003;61018;26.334;50.194;2022-07-01T06:54:24;39;20;
72793;PMS5003;61018;26.334;50.194;2022-07-01T06:56:55;43;24;
72793;PMS5003;61018;26.334;50.194;2022-07-01T06:59:16;51;28;
72793;PMS5003;61018;26.334;50.194;2022-07-01T07:01:41;39;21;
72793;PMS5003;61018;26.334;50.194;2022-07-01T07:04:06;28;24;
72793;PMS5003;61018;26.334;50.194;2022-07-01T07:06:31;47;23;
72793;PMS5003;61018;26.334;50.194;2022-07-01T07:08:56;36;21;
72793;PMS5003;61018;26.334;50.194;2022-07-01T07:11:23;33;24;
72793;PMS5003;61018;26.334;50.194;2022-07-01T07:13:47;28;25;
72793;PMS5003;61018;26.334;50.194;2022-07-01T07:16:13;42;24;
72793;PMS5003;61018;26.334;50.194;2022-07-01T07:18:38;30;22;
72793;PMS5003;61018;26.334;50.194;2022-07-01T07:21:04;29;21;
72793;PMS5003;61018;26.334;50.194;2022-07-01T07:23:29;38;26;
72793;PMS5003;61018;26.334;50.194;2022-07-01T07:25:55;28;25;
72793;PMS5003;61018;26.334;50.194;2022-07-01T07:30:46;28;24;
72793;PMS5003;61018;26.334;50.194;2022-07-01T07:33:12;35;20;
72793;PMS5003;61018;26.334;50.194;2022-07-01T07:35:37;37;20;
72793;PMS5003;61018;26.334;50.194;2022-07-01T07:38:03;37;24;
72793;PMS5003;61018;26.334;50.194;2022-07-01T07:40:29;45;23;
72793;PMS5003;61018;26.334;50.194;2022-07-01T07:42:54;28;26;
72793;PMS5003;61018;26.334;50.194;2022-07-01T07:45:20;33;22;
72793;PMS5003;61018;26.334;50.194;2022-07-01T07:47:46;29;24;
72793;PMS5003;61018;26.334;50.194;2022-07-01T07:50:10;23;21;
72793;PMS5003;61018;26.334;50.194;2022-07-01T07:52:36;32;27;
72793;PMS5003;61018;26.334;50.194;2022-07-01T07:55:02;26;20;
72793;PMS5003;61018;26.334;50.194;2022-07-01T07:57:27;24;19;
72793;PMS5003;61018;26.334;50.194;2022-07-01T07:59:52;20;19;
72793;PMS5003;61018;26.334;50.194;2022-07-01T08:02:19;23;17;
72793;PMS5003;61018;26.334;50.194;2022-07-01T08:04:43;25;20;
72793;PMS5003;61018;26.334;50.194;2022-07-01T08:07:09;28;21;
72793;PMS5003;61018;26.334;50.194;2022-07-01T08:09:35;32;21;
72793;PMS5003;61018;26.334;50.194;2022-07-01T08:12:00;22;22;
72793;PMS5003;61018;26.334;50.194;2022-07-01T08:14:26;23;21;
72793;PMS5003;61018;26.334;50.194;2022-07-01T08:16:51;24;21;
72793;PMS5003;61018;26.334;50.194;2022-07-01T08:19:17;26;20;
72793;PMS5003;61018;26.334;50.194;2022-07-01T08:21:51;45;27;
72793;PMS5003;61018;26.334;50.194;2022-07-01T08:24:06;54;24;
72793;PMS5003;61018;26.334;50.194;2022-07-01T08:26:32;33;18;
72793;PMS5003;61018;26.334;50.194;2022-07-01T08:31:23;31;20;
72793;PMS5003;61018;26.334;50.194;2022-07-01T08:33:48;27;20;
72793;PMS5003;61018;26.334;50.194;2022-07-01T08:36:14;33;22;
72793;PMS5003;61018;26.334;50.194;2022-07-01T08:38:40;24;19;
72793;PMS5003;61018;26.334;50.194;2022-07-01T08:41:05;23;20;
72793;PMS5003;61018;26.334;50.194;2022-07-01T08:43:31;41;26;
72793;PMS5003;61018;26.334;50.194;2022-07-01T08:45:57;29;25;
72793;PMS5003;61018;26.334;50.194;2022-07-01T08:48:21;30;22;
72793;PMS5003;61018;26.334;50.194;2022-07-01T08:50:47;30;23;
72793;PMS5003;61018;26.334;50.194;2022-07-01T08:53:13;43;21;
72793;PMS5003;61018;26.334;50.194;2022-07-01T08:55:39;32;22;
72793;PMS5003;61018;26.334;50.194;2022-07-01T08:58:04;44;22;
72793;PMS5003;61018;26.334;50.194;2022-07-01T09:00:30;26;22;
72793;PMS5003;61018;26.334;50.194;2022-07-01T09:02:55;31;24;
72793;PMS5003;61018;26.334;50.194;2022-07-01T09:05:26;43;28;
72793;PMS5003;61018;26.334;50.194;2022-07-01T09:07:46;28;22;
72793;PMS5003;61018;26.334;50.194;2022-07-01T09:15:02;31;23;
72793;PMS5003;61018;26.334;50.194;2022-07-01T09:17:27;33;24;
72793;PMS5003;61018;26.334;50.194;2022-07-01T09:19:53;41;26;
72793;PMS5003;61018;26.334;50.194;2022-07-01T09:22:18;34;23;
72793;PMS5003;61018;26.334;50.194;2022-07-01T09:24:43;36;25;
72793;PMS5003;61018;26.334;50.194;2022-07-01T09:32:00;39;26;
72793;PMS5003;61018;26.334;50.194;2022-07-01T09:34:25;47;27;
72793;PMS5003;61018;26.334;50.194;2022-07-01T09:36:52;48;27;
72793;PMS5003;61018;26.334;50.194;2022-07-01T09:39:15;31;22;
72793;PMS5003;61018;26.334;50.194;2022-07-01T09:41:41;37;21;
72793;PMS5003;61018;26.334;50.194;2022-07-01T09:44:07;50;26;
72793;PMS5003;61018;26.334;50.194;2022-07-01T09:46:34;28;21;
72793;PMS5003;61018;26.334;50.194;2022-07-01T09:48:59;31;25;
72793;PMS5003;61018;26.334;50.194;2022-07-01T09:51:23;27;21;
72793;PMS5003;61018;26.334;50.194;2022-07-01T09:56:14;26;21;
72793;PMS5003;61018;26.334;50.194;2022-07-01T10:01:12;35;23;
72793;PMS5003;61018;26.334;50.194;2022-07-01T10:03:37;35;26;
72793;PMS5003;61018;26.334;50.194;2022-07-01T10:05:57;48;23;
72793;PMS5003;61018;26.334;50.194;2022-07-01T10:10:49;47;24;
72793;PMS5003;61018;26.334;50.194;2022-07-01T10:13:13;28;25;
72793;PMS5003;61018;26.334;50.194;2022-07-01T10:15:39;28;23;
72793;PMS5003;61018;26.334;50.194;2022-07-01T10:18:03;41;23;
72793;PMS5003;61018;26.334;50.194;2022-07-01T10:20:28;44;23;
72793;PMS5003;61018;26.334;50.194;2022-07-01T10:27:45;33;24;
72793;PMS5003;61018;26.334;50.194;2022-07-01T10:30:12;29;22;
72793;PMS5003;61018;26.334;50.194;2022-07-01T10:32:35;28;20;
72793;PMS5003;61018;26.334;50.194;2022-07-01T10:35:04;30;26;
72793;PMS5003;61018;26.334;50.194;2022-07-01T10:39:56;25;22;
72793;PMS5003;61018;26.334;50.194;2022-07-01T10:42:17;31;22;
72793;PMS5003;61018;26.334;50.194;2022-07-01T10:47:09;37;22;
72793;PMS5003;61018;26.334;50.194;2022-07-01T10:51:59;46;23;
72793;PMS5003;61018;26.334;50.194;2022-07-01T10:56:50;41;24;
72793;PMS5003;61018;26.334;50.194;2022-07-01T10:59:17;42;24;
72793;PMS5003;61018;26.334;50.194;2022-07-01T11:01:41;27;21;
72793;PMS5003;61018;26.334;50.194;2022-07-01T11:04:07;28;24;
72793;PMS5003;61018;26.334;50.194;2022-07-01T11:06:31;24;20;
72793;PMS5003;61018;26.334;50.194;2022-07-01T11:08:57;25;21;
72793;PMS5003;61018;26.334;50.194;2022-07-01T11:11:22;39;23;
72793;PMS5003;61018;26.334;50.194;2022-07-01T11:13:51;39;26;
72793;PMS5003;61018;26.334;50.194;2022-07-01T11:16:14;35;26;
72793;PMS5003;61018;26.334;50.194;2022-07-01T11:18:39;30;22;
72793;PMS5003;61018;26.334;50.194;2022-07-01T11:21:05;28;21;
72793;PMS5003;61018;26.334;50.194;2022-07-01T11:23:30;26;22;
72793;PMS5003;61018;26.334;50.194;2022-07-01T11:25:54;34;24;
72793;PMS5003;61018;26.334;50.194;2022-07-01T11:28:20;29;19;
72793;PMS5003;61018;26.334;50.194;2022-07-01T11:30:45;26;20;
72793;PMS5003;61018;26.334;50.194;2022-07-01T11:33:10;32;19;
72793;PMS5003;61018;26.334;50.194;2022-07-01T11:35:36;20;18;
72793;PMS5003;61018;26.334;50.194;2022-07-01T11:38:07;19;19;
72793;PMS5003;61018;26.334;50.194;2022-07-01T11:40:27;30;23;
72793;PMS5003;61018;26.334;50.194;2022-07-01T11:42:52;32;22;
72793;PMS5003;61018;26.334;50.194;2022-07-01T11:45:23;21;19;
72793;PMS5003;61018;26.334;50.194;2022-07-01T11:50:08;26;20;
72793;PMS5003;61018;26.334;50.194;2022-07-01T11:52:34;24;22;
72793;PMS5003;61018;26.334;50.194;2022-07-01T11:54:59;24;23;
72793;PMS5003;61018;26.334;50.194;2022-07-01T11:57:25;28;24;
72793;PMS5003;61018;26.334;50.194;2022-07-01T11:59:51;25;22;
72793;PMS5003;61018;26.334;50.194;2022-07-01T12:02:16;38;23;
72793;PMS5003;61018;26.334;50.194;2022-07-01T12:04:41;34;22;
72793;PMS5003;61018;26.334;50.194;2022-07-01T12:07:06;25;23;
72793;PMS5003;61018;26.334;50.194;2022-07-01T12:09:32;29;24;
72793;PMS5003;61018;26.334;50.194;2022-07-01T12:11:57;40;22;
72793;PMS5003;61018;26.334;50.194;2022-07-01T12:14:23;39;21;
72793;PMS5003;61018;26.334;50.194;2022-07-01T12:19:13;29;24;
72793;PMS5003;61018;26.334;50.194;2022-07-01T12:21:48;32;27;
72793;PMS5003;61018;26.334;50.194;2022-07-01T12:24:04;41;29;
72793;PMS5003;61018;26.334;50.194;2022-07-01T12:26:28;37;34;
72793;PMS5003;61018;26.334;50.194;2022-07-01T12:28:54;36;32;
72793;PMS5003;61018;26.334;50.194;2022-07-01T12:31:20;35;26;
72793;PMS5003;61018;26.334;50.194;2022-07-01T12:33:50;34;31;
72793;PMS5003;61018;26.334;50.194;2022-07-01T12:36:12;36;30;
72793;PMS5003;61018;26.334;50.194;2022-07-01T12:38:36;34;31;
72793;PMS5003;61018;26.334;50.194;2022-07-01T12:41:01;46;30;
72793;PMS5003;61018;26.334;50.194;2022-07-01T12:43:28;41;31;
72793;PMS5003;61018;26.334;50.194;2022-07-01T12:45:52;41;30;
72793;PMS5003;61018;26.334;50.194;2022-07-01T12:48:17;56;34;
72793;PMS5003;61018;26.334;50.194;2022-07-01T12:50:47;37;34;
72793;PMS5003;61018;26.334;50.194;2022-07-01T12:53:08;44;33;
72793;PMS5003;61018;26.334;50.194;2022-07-01T12:55:33;39;32;
72793;PMS5003;61018;26.334;50.194;2022-07-01T12:57:58;36;33;
72793;PMS5003;61018;26.334;50.194;2022-07-01T13:00:23;52;34;
72793;PMS5003;61018;26.334;50.194;2022-07-01T13:02:50;54;37;
72793;PMS5003;61018;26.334;50.194;2022-07-01T13:05:15;41;35;
72793;PMS5003;61018;26.334;50.194;2022-07-01T13:07:39;32;30;
72793;PMS5003;61018;26.334;50.194;2022-07-01T13:10:05;38;33;
72793;PMS5003;61018;26.334;50.194;2022-07-01T13:12:30;49;32;
72793;PMS5003;61018;26.334;50.194;2022-07-01T13:14:54;49;33;
72793;PMS5003;61018;26.334;50.194;2022-07-01T13:17:20;49;35;
72793;PMS5003;61018;26.334;50.194;2022-07-01T13:19:45;42;33;
72793;PMS5003;61018;26.334;50.194;2022-07-01T13:24:37;50;37;
72793;PMS5003;61018;26.334;50.194;2022-07-01T13:27:02;39;36;
72793;PMS5003;61018;26.334;50.194;2022-07-01T13:29:27;58;36;
72793;PMS5003;61018;26.334;50.194;2022-07-01T13:31:52;38;30;
72793;PMS5003;61018;26.334;50.194;2022-07-01T13:34:18;44;37;
72793;PMS5003;61018;26.334;50.194;2022-07-01T13:36:43;44;37;
72793;PMS5003;61018;26.334;50.194;2022-07-01T13:39:08;42;41;
72793;PMS5003;61018;26.334;50.194;2022-07-01T13:41:34;51;33;
72793;PMS5003;61018;26.334;50.194;2022-07-01T13:43:59;44;37;
72793;PMS5003;61018;26.334;50.194;2022-07-01T13:46:25;43;40;
72793;PMS5003;61018;26.334;50.194;2022-07-01T13:48:49;62;41;
72793;PMS5003;61018;26.334;50.194;2022-07-01T13:51:15;59;42;
72793;PMS5003;61018;26.334;50.194;2022-07-01T13:53:40;49;38;
72793;PMS5003;61018;26.334;50.194;2022-07-01T13:56:06;45;40;
72793;PMS5003;61018;26.334;50.194;2022-07-01T13:58:32;69;42;
72793;PMS5003;61018;26.334;50.194;2022-07-01T14:00:56;46;39;
72793;PMS5003;61018;26.334;50.194;2022-07-01T14:03:22;56;42;
72793;PMS5003;61018;26.334;50.194;2022-07-01T14:05:48;52;39;
72793;PMS5003;61018;26.334;50.194;2022-07-01T14:10:38;46;40;
72793;PMS5003;61018;26.334;50.194;2022-07-01T14:13:04;64;40;
72793;PMS5003;61018;26.334;50.194;2022-07-01T14:15:29;59;42;
72793;PMS5003;61018;26.334;50.194;2022-07-01T14:17:55;56;41;
72793;PMS5003;61018;26.334;50.194;2022-07-01T14:20:20;66;38;
72793;PMS5003;61018;26.334;50.194;2022-07-01T14:22:45;54;38;
72793;PMS5003;61018;26.334;50.194;2022-07-01T14:25:11;47;37;
72793;PMS5003;61018;26.334;50.194;2022-07-01T14:27:36;52;37;
72793;PMS5003;61018;26.334;50.194;2022-07-01T14:30:02;48;41;
72793;PMS5003;61018;26.334;50.194;2022-07-01T14:32:28;41;39;
72793;PMS5003;61018;26.334;50.194;2022-07-01T14:34:54;52;39;
72793;PMS5003;61018;26.334;50.194;2022-07-01T14:37:18;56;36;
72793;PMS5003;61018;26.334;50.194;2022-07-01T14:39:45;50;42;
72793;PMS5003;61018;26.334;50.194;2022-07-01T14:42:10;56;39;
72793;PMS5003;61018;26.334;50.194;2022-07-01T14:44:34;40;34;
72793;PMS5003;61018;26.334;50.194;2022-07-01T14:47:04;55;38;
72793;PMS5003;61018;26.334;50.194;2022-07-01T14:49:25;48;38;
72793;PMS5003;61018;26.334;50.194;2022-07-01T14:51:50;56;36;
72793;PMS5003;61018;26.334;50.194;2022-07-01T14:54:16;56;33;
72793;PMS5003;61018;26.334;50.194;2022-07-01T14:56:41;47;37;
72793;PMS5003;61018;26.334;50.194;2022-07-01T14:59:07;39;35;
72793;PMS5003;61018;26.334;50.194;2022-07-01T15:01:32;57;38;
72793;PMS5003;61018;26.334;50.194;2022-07-01T15:03:58;40;34;
72793;PMS5003;61018;26.334;50.194;2022-07-01T15:06:22;40;36;
72793;PMS5003;61018;26.334;50.194;2022-07-01T15:08:48;48;38;
72793;PMS5003;61018;26.334;50.194;2022-07-01T15:11:14;42;34;
72793;PMS5003;61018;26.334;50.194;2022-07-01T15:13:39;45;32;
72793;PMS5003;61018;26.334;50.194;2022-07-01T15:16:05;50;37;
72793;PMS5003;61018;26.334;50.194;2022-07-01T15:18:30;43;34;
72793;PMS5003;61018;26.334;50.194;2022-07-01T15:23:21;51;35;
72793;PMS5003;61018;26.334;50.194;2022-07-01T15:25:47;52;31;
72793;PMS5003;61018;26.334;50.194;2022-07-01T15:28:11;46;33;
72793;PMS5003;61018;26.334;50.194;2022-07-01T15:30:37;47;33;
72793;PMS5003;61018;26.334;50.194;2022-07-01T15:33:02;49;35;
72793;PMS5003;61018;26.334;50.194;2022-07-01T15:35:27;47;31;
72793;PMS5003;61018;26.334;50.194;2022-07-01T15:40:18;55;30;
72793;PMS5003;61018;26.334;50.194;2022-07-01T15:42:43;49;36;
72793;PMS5003;61018;26.334;50.194;2022-07-01T15:45:09;48;33;
72793;PMS5003;61018;26.334;50.194;2022-07-01T15:47:35;39;35;
72793;PMS5003;61018;26.334;50.194;2022-07-01T15:49:59;44;37;
72793;PMS5003;61018;26.334;50.194;2022-07-01T15:52:25;43;35;
72793;PMS5003;61018;26.334;50.194;2022-07-01T15:57:17;65;38;
72793;PMS5003;61018;26.334;50.194;2022-07-01T15:59:47;56;34;
72793;PMS5003;61018;26.334;50.194;2022-07-01T16:02:12;59;38;
72793;PMS5003;61018;26.334;50.194;2022-07-01T16:04:38;47;36;
72793;PMS5003;61018;26.334;50.194;2022-07-01T16:09:24;43;34;
72793;PMS5003;61018;26.334;50.194;2022-07-01T16:14:15;41;35;
72793;PMS5003;61018;26.334;50.194;2022-07-01T16:16:39;39;37;
72793;PMS5003;61018;26.334;50.194;2022-07-01T16:19:05;61;38;
72793;PMS5003;61018;26.334;50.194;2022-07-01T16:21:30;57;36;
72793;PMS5003;61018;26.334;50.194;2022-07-01T16:23:55;46;38;
72793;PMS5003;61018;26.334;50.194;2022-07-01T16:26:21;65;36;
72793;PMS5003;61018;26.334;50.194;2022-07-01T16:28:47;45;37;
72793;PMS5003;61018;26.334;50.194;2022-07-01T16:31:11;50;36;
72793;PMS5003;61018;26.334;50.194;2022-07-01T16:33:37;66;39;
72793;PMS5003;61018;26.334;50.194;2022-07-01T16:36:04;46;35;
72793;PMS5003;61018;26.334;50.194;2022-07-01T16:38:28;60;39;
72793;PMS5003;61018;26.334;50.194;2022-07-01T16:40:54;53;39;
72793;PMS5003;61018;26.334;50.194;2022-07-01T16:43:19;54;44;
72793;PMS5003;61018;26.334;50.194;2022-07-01T16:45:44;69;39;
72793;PMS5003;61018;26.334;50.194;2022-07-01T16:48:14;51;36;
72793;PMS5003;61018;26.334;50.194;2022-07-01T16:53:00;49;39;
72793;PMS5003;61018;26.334;50.194;2022-07-01T16:55:27;55;46;
72793;PMS5003;61018;26.334;50.194;2022-07-01T17:00:16;59;42;
72793;PMS5003;61018;26.334;50.194;2022-07-01T17:02:41;62;42;
72793;PMS5003;61018;26.334;50.194;2022-07-01T17:05:06;67;40;
72793;PMS5003;61018;26.334;50.194;2022-07-01T17:07:32;62;41;
72793;PMS5003;61018;26.334;50.194;2022-07-01T17:09:56;64;44;
72793;PMS5003;61018;26.334;50.194;2022-07-01T17:12:22;68;46;
72793;PMS5003;61018;26.334;50.194;2022-07-01T17:14:54;70;47;
72793;PMS5003;61018;26.334;50.194;2022-07-01T17:17:13;69;46;
72793;PMS5003;61018;26.334;50.194;2022-07-01T17:19:38;84;45;
72793;PMS5003;61018;26.334;50.194;2022-07-01T17:22:04;67;47;